Time;durP1;ratioP1;P1;durP2;ratioP2;P2;SDS_P1;SDS_P2;PMS_P1;PMS_P2;Temp;Humidity;BMP_temperature;BMP_pressure;BME280_temperature;BME280_humidity;BME280_pressure;Samples;Min_cycle;Max_cycle;Signal;HPM_P1;HPM_P2
2023/08/05 00:00:41;;;;;;;;;;;;;;;17.86;100.00;98968.84;5091945;28;19920;-82
2023/08/05 00:03:06;;;;;;;;;;;;;;;17.89;100.00;98979.13;5090257;28;19956;-82
2023/08/05 00:05:31;;;;;;;;;;;;;;;17.91;100.00;98989.59;5091794;28;19920;-82
2023/08/05 00:07:57;;;;;;;;;;;;;;;17.91;100.00;98994.91;5091837;28;20603;-83
2023/08/05 00:10:22;;;;;;;;;;;;;;;17.89;100.00;98987.13;5091589;28;19928;-82
2023/08/05 00:12:48;;;;;;;;;;;;;;;17.91;100.00;98994.91;5091883;28;20147;-83
2023/08/05 00:15:13;;;;;;;;;;;;;;;17.92;100.00;98999.25;5091033;28;20788;-83
2023/08/05 00:17:38;;;;;;;;;;;;;;;17.94;100.00;98997.19;5091072;28;19920;-83
2023/08/05 00:20:04;;;;;;;;;;;;;;;17.96;100.00;98997.81;5090547;28;19960;-82
2023/08/05 00:22:29;;;;;;;;;;;;;;;17.95;100.00;98990.84;5089908;28;19965;-83
2023/08/05 00:24:55;;;;;;;;;;;;;;;17.98;100.00;98990.41;5091106;28;20018;-83
2023/08/05 00:27:20;;;;;;;;;;;;;;;17.99;100.00;98992.06;5090713;28;19969;-83
2023/08/05 00:29:46;;;;;;;;;;;;;;;17.99;100.00;98990.22;5089916;28;19984;-84
2023/08/05 00:32:11;;;;;;;;;;;;;;;18.02;100.00;98992.47;5090661;28;20428;-84
2023/08/05 00:34:36;;;;;;;;;;;;;;;18.05;100.00;98995.78;5072312;28;19927;-83
2023/08/05 00:37:02;;;;;;;;;;;;;;;18.06;100.00;98998.25;5090542;28;19920;-84
2023/08/05 00:39:28;;;;;;;;;;;;;;;18.08;100.00;98993.53;5091000;28;19920;-83
2023/08/05 00:41:54;;;;;;;;;;;;;;;18.07;100.00;98983.03;5091117;28;19924;-83
2023/08/05 00:44:19;;;;;;;;;;;;;;;18.10;100.00;98978.09;5090657;28;20435;-83
2023/08/05 00:46:44;;;;;;;;;;;;;;;18.08;100.00;98974.84;5090711;28;19951;-83
2023/08/05 00:49:11;;;;;;;;;;;;;;;18.12;100.00;98967.22;5090206;28;20014;-83
2023/08/05 00:51:37;;;;;;;;;;;;;;;18.15;100.00;98964.97;5063719;28;20383;-82
2023/08/05 00:54:03;;;;;;;;;;;;;;;18.12;100.00;98960.03;5090324;28;19946;-83
2023/08/05 00:56:28;;;;;;;;;;;;;;;18.16;100.00;98953.25;5090647;28;19920;-83
2023/08/05 00:58:54;;;;;;;;;;;;;;;18.16;100.00;98950.59;5087786;28;20261;-83
2023/08/05 01:01:19;;;;;;;;;;;;;;;18.17;100.00;98946.91;5087767;28;20396;-83
2023/08/05 01:03:44;;;;;;;;;;;;;;;18.15;100.00;98924.91;5088800;28;19966;-83
2023/08/05 01:06:11;;;;;;;;;;;;;;;18.11;100.00;98922.84;5071637;28;19959;-83
2023/08/05 01:08:38;;;;;;;;;;;;;;;18.12;100.00;98921.84;5090666;28;19921;-83
2023/08/05 01:11:03;;;;;;;;;;;;;;;17.99;100.00;98922.66;5090811;28;20022;-83
2023/08/05 01:13:31;;;;;;;;;;;;;;;17.70;100.00;98917.72;5089016;28;19927;-83
2023/08/05 01:15:57;;;;;;;;;;;;;;;17.66;100.00;98921.81;5090535;28;20288;-83
2023/08/05 01:18:24;;;;;;;;;;;;;;;17.55;100.00;98918.69;5090299;28;19924;-84
2023/08/05 01:20:50;;;;;;;;;;;;;;;17.37;100.00;98917.63;5082826;22;20016;-74
2023/08/05 01:23:22;;;;;;;;;;;;;;;17.19;100.00;98918.19;5021101;28;20443;-77
2023/08/05 01:25:47;;;;;;;;;;;;;;;17.23;100.00;98919.44;5018953;28;19961;-76
2023/08/05 01:28:15;;;;;;;;;;;;;;;17.02;100.00;98898.25;5021105;28;19924;-76
2023/08/05 01:30:42;;;;;;;;;;;;;;;16.91;100.00;98901.47;5000580;28;19926;-77
2023/08/05 01:33:08;;;;;;;;;;;;;;;16.77;100.00;98896.09;5003784;28;20441;-76
2023/08/05 01:35:35;;;;;;;;;;;;;;;16.66;100.00;98893.19;5000543;28;20404;-76
2023/08/05 01:38:00;;;;;;;;;;;;;;;16.51;100.00;98885.28;5019641;28;19932;-77
2023/08/05 01:40:28;;;;;;;;;;;;;;;16.49;100.00;98870.53;5019557;28;19928;-76
2023/08/05 01:42:57;;;;;;;;;;;;;;;16.40;100.00;98867.19;5001606;28;20052;-76
2023/08/05 01:45:22;;;;;;;;;;;;;;;16.27;100.00;98861.78;5020220;28;19921;-75
2023/08/05 01:47:47;;;;;;;;;;;;;;;16.25;100.00;98853.19;5018588;28;20263;-78
2023/08/05 01:50:12;;;;;;;;;;;;;;;16.36;100.00;98855.31;5036123;28;20023;-77
2023/08/05 01:52:38;;;;;;;;;;;;;;;16.34;100.00;98841.34;5021763;28;20396;-77
2023/08/05 01:55:03;;;;;;;;;;;;;;;16.37;100.00;98840.97;5035287;28;19929;-75
2023/08/05 01:57:29;;;;;;;;;;;;;;;16.25;100.00;98826.56;5018960;28;19921;-77
2023/08/05 01:59:55;;;;;;;;;;;;;;;16.23;100.00;98817.94;5034705;28;19921;-76
2023/08/05 02:02:20;;;;;;;;;;;;;;;16.21;100.00;98814.66;5018810;28;20283;-75
2023/08/05 02:04:46;;;;;;;;;;;;;;;16.05;100.00;98814.97;5000666;28;20393;-77
2023/08/05 02:07:12;;;;;;;;;;;;;;;16.04;100.00;98805.34;5020720;28;19921;-77
2023/08/05 02:09:37;;;;;;;;;;;;;;;15.92;100.00;98797.91;5017816;28;20441;-77
2023/08/05 02:12:02;;;;;;;;;;;;;;;15.64;100.00;98797.09;5035055;28;19973;-77
2023/08/05 02:14:28;;;;;;;;;;;;;;;15.56;100.00;98783.94;5001650;28;19927;-76
2023/08/05 02:16:53;;;;;;;;;;;;;;;15.53;100.00;98776.34;5018983;28;19936;-76
2023/08/05 02:19:18;;;;;;;;;;;;;;;15.43;100.00;98773.19;5020266;28;20374;-77
2023/08/05 02:21:44;;;;;;;;;;;;;;;15.49;100.00;98761.78;5021649;28;19928;-76
2023/08/05 02:24:09;;;;;;;;;;;;;;;15.40;100.00;98768.25;5020776;28;20010;-76
2023/08/05 02:26:35;;;;;;;;;;;;;;;15.29;100.00;98763.44;5021252;28;19921;-77
2023/08/05 02:29:01;;;;;;;;;;;;;;;15.16;100.00;98764.16;5005952;28;19921;-76
2023/08/05 02:31:26;;;;;;;;;;;;;;;15.10;100.00;98763.09;5038526;28;19921;-77
2023/08/05 02:33:51;;;;;;;;;;;;;;;15.09;100.00;98750.81;5023564;28;19965;-76
2023/08/05 02:36:17;;;;;;;;;;;;;;;15.00;100.00;98746.66;5024678;28;19925;-77
2023/08/05 02:38:42;;;;;;;;;;;;;;;14.92;100.00;98744.13;5022261;28;19921;-77
2023/08/05 02:41:08;;;;;;;;;;;;;;;14.86;100.00;98739.56;5024480;28;19928;-77
2023/08/05 02:43:33;;;;;;;;;;;;;;;14.88;100.00;98742.03;5022035;28;19921;-77
2023/08/05 02:45:59;;;;;;;;;;;;;;;15.01;100.00;98732.34;5022923;28;19922;-77
2023/08/05 02:48:25;;;;;;;;;;;;;;;15.02;100.00;98728.66;5023193;28;19944;-77
2023/08/05 02:50:51;;;;;;;;;;;;;;;15.04;100.00;98726.66;5025821;28;19992;-76
2023/08/05 02:53:16;;;;;;;;;;;;;;;15.04;100.00;98718.69;5024107;28;19929;-76
2023/08/05 02:55:41;;;;;;;;;;;;;;;15.04;100.00;98720.50;5019403;28;19940;-77
2023/08/05 02:58:07;;;;;;;;;;;;;;;15.19;100.00;98720.44;5023438;28;19921;-77
2023/08/05 03:00:33;;;;;;;;;;;;;;;15.33;100.00;98735.47;5021808;28;19975;-77
2023/08/05 03:02:58;;;;;;;;;;;;;;;15.45;100.00;98739.25;5037939;28;19917;-77
2023/08/05 03:05:24;;;;;;;;;;;;;;;15.54;100.00;98732.81;5037948;28;19921;-76
2023/08/05 03:07:49;;;;;;;;;;;;;;;15.60;100.00;98732.03;5036777;28;19917;-77
2023/08/05 03:10:15;;;;;;;;;;;;;;;15.64;100.00;98738.59;5006013;28;19928;-76
2023/08/05 03:12:40;;;;;;;;;;;;;;;15.70;100.00;98732.50;5021166;28;19928;-76
2023/08/05 03:15:07;;;;;;;;;;;;;;;15.76;100.00;98731.72;5038813;28;19918;-77
2023/08/05 03:17:34;;;;;;;;;;;;;;;15.77;100.00;98738.69;5036744;28;19925;-76
2023/08/05 03:20:01;;;;;;;;;;;;;;;15.82;100.00;98736.25;5004649;28;20381;-77
2023/08/05 03:22:28;;;;;;;;;;;;;;;15.78;100.00;98737.66;5039088;28;19948;-77
2023/08/05 03:24:54;;;;;;;;;;;;;;;15.73;100.00;98736.59;5022723;28;19921;-77
2023/08/05 03:27:20;;;;;;;;;;;;;;;15.70;100.00;98737.81;5035746;28;20377;-76
2023/08/05 03:29:47;;;;;;;;;;;;;;;15.73;100.00;98739.25;5023707;28;19927;-78
2023/08/05 03:32:13;;;;;;;;;;;;;;;15.78;100.00;98735.00;5002420;28;19921;-77
2023/08/05 03:34:39;;;;;;;;;;;;;;;15.82;100.00;98738.91;5006164;28;20302;-77
2023/08/05 03:37:04;;;;;;;;;;;;;;;15.83;100.00;98743.22;5002559;28;20016;-77
2023/08/05 03:39:30;;;;;;;;;;;;;;;15.85;100.00;98741.16;5037567;28;20008;-77
2023/08/05 03:41:55;;;;;;;;;;;;;;;15.86;100.00;98742.81;5021733;28;19921;-76
2023/08/05 03:44:21;;;;;;;;;;;;;;;15.87;100.00;98728.50;5020497;28;19987;-77
2023/08/05 03:46:46;;;;;;;;;;;;;;;15.81;100.00;98723.97;5023089;28;20013;-78
2023/08/05 03:49:11;;;;;;;;;;;;;;;15.77;100.00;98733.38;5034834;28;20038;-78
2023/08/05 03:51:37;;;;;;;;;;;;;;;15.74;100.00;98728.41;5023706;28;19921;-77
2023/08/05 03:54:05;;;;;;;;;;;;;;;15.70;100.00;98732.50;5037600;28;19921;-77
2023/08/05 03:56:31;;;;;;;;;;;;;;;15.64;100.00;98721.81;5036309;28;19927;-78
2023/08/05 03:58:58;;;;;;;;;;;;;;;15.68;100.00;98733.69;5021276;28;19945;-77
2023/08/05 04:01:23;;;;;;;;;;;;;;;15.71;100.00;98739.47;5037048;28;20377;-76
2023/08/05 04:03:49;;;;;;;;;;;;;;;15.70;100.00;98742.31;5035685;28;20392;-78
2023/08/05 04:06:15;;;;;;;;;;;;;;;15.71;100.00;98738.63;5004750;28;19948;-78
2023/08/05 04:08:41;;;;;;;;;;;;;;;15.74;100.00;98748.88;5035067;28;19937;-76
2023/08/05 04:11:08;;;;;;;;;;;;;;;15.71;100.00;98741.31;5037798;28;19961;-78
2023/08/05 04:13:35;;;;;;;;;;;;;;;15.71;100.00;98744.78;5020186;28;20376;-78
2023/08/05 04:16:03;;;;;;;;;;;;;;;15.68;100.00;98742.50;5003742;28;20285;-77
2023/08/05 04:18:29;;;;;;;;;;;;;;;15.73;100.00;98740.06;5036115;28;19983;-77
2023/08/05 04:20:57;;;;;;;;;;;;;;;15.77;100.00;98744.00;5024528;28;19921;-77
2023/08/05 04:23:24;;;;;;;;;;;;;;;15.81;100.00;98739.94;5021595;28;20004;-77
2023/08/05 04:25:49;;;;;;;;;;;;;;;15.80;100.00;98748.91;5020100;28;19960;-77
2023/08/05 04:28:14;;;;;;;;;;;;;;;15.82;100.00;98746.91;5037493;28;19956;-77
2023/08/05 04:30:40;;;;;;;;;;;;;;;15.81;100.00;98739.09;5019117;28;19944;-77
2023/08/05 04:33:06;;;;;;;;;;;;;;;15.87;100.00;98736.47;5021817;28;19921;-77
2023/08/05 04:35:31;;;;;;;;;;;;;;;15.81;100.00;98744.41;5020317;28;19928;-77
2023/08/05 04:37:57;;;;;;;;;;;;;;;15.67;100.00;98748.81;5020370;28;19980;-78
2023/08/05 04:40:22;;;;;;;;;;;;;;;15.68;100.00;98749.66;5021353;28;19929;-76
2023/08/05 04:42:47;;;;;;;;;;;;;;;15.70;100.00;98753.78;5019606;28;19957;-77
2023/08/05 04:45:13;;;;;;;;;;;;;;;15.72;100.00;98757.06;5022070;28;19925;-77
2023/08/05 04:47:40;;;;;;;;;;;;;;;15.75;100.00;98755.84;5018466;28;20452;-77
2023/08/05 04:50:05;;;;;;;;;;;;;;;15.58;100.00;98765.97;5021351;28;20048;-76
2023/08/05 04:52:31;;;;;;;;;;;;;;;15.60;100.00;98763.94;5023855;28;20007;-77
2023/08/05 04:54:56;;;;;;;;;;;;;;;15.57;100.00;98772.28;5020548;28;20068;-76
2023/08/05 04:57:21;;;;;;;;;;;;;;;15.39;100.00;98775.41;5021021;28;19975;-76
2023/08/05 04:59:47;;;;;;;;;;;;;;;15.27;100.00;98776.09;5019051;28;20400;-77
2023/08/05 05:02:12;;;;;;;;;;;;;;;15.39;100.00;98771.91;5021723;28;19917;-77
2023/08/05 05:04:37;;;;;;;;;;;;;;;15.49;100.00;98788.38;5018816;28;19921;-76
2023/08/05 05:07:03;;;;;;;;;;;;;;;15.55;100.00;98792.97;5021246;28;20019;-75
2023/08/05 05:09:28;;;;;;;;;;;;;;;15.45;100.00;98787.91;5020387;28;19917;-77
2023/08/05 05:11:54;;;;;;;;;;;;;;;15.44;100.00;98780.13;5022965;28;19928;-77
2023/08/05 05:14:20;;;;;;;;;;;;;;;15.44;100.00;98774.81;5019069;28;19991;-77
2023/08/05 05:16:45;;;;;;;;;;;;;;;15.45;100.00;98776.47;5021611;28;19917;-77
2023/08/05 05:19:10;;;;;;;;;;;;;;;15.44;100.00;98786.28;5018021;28;19968;-77
2023/08/05 05:21:36;;;;;;;;;;;;;;;15.51;100.00;98781.00;5023548;28;19995;-78
2023/08/05 05:24:01;;;;;;;;;;;;;;;15.51;100.00;98786.31;5020527;28;19928;-77
2023/08/05 05:26:27;;;;;;;;;;;;;;;15.44;100.00;98785.44;5020168;28;19921;-77
2023/08/05 05:28:52;;;;;;;;;;;;;;;15.45;100.00;98787.09;5019567;28;19928;-77
2023/08/05 05:31:17;;;;;;;;;;;;;;;15.49;100.00;98783.06;5020925;28;19948;-77
2023/08/05 05:33:47;;;;;;;;;;;;;;;15.49;100.00;98793.69;5018308;28;20348;-77
2023/08/05 05:36:12;;;;;;;;;;;;;;;15.52;100.00;98798.66;5021535;28;20455;-77
2023/08/05 05:38:37;;;;;;;;;;;;;;;15.61;100.00;98802.78;5000858;28;19921;-77
2023/08/05 05:41:03;;;;;;;;;;;;;;;15.73;100.00;98806.56;5020646;28;19929;-76
2023/08/05 05:43:28;;;;;;;;;;;;;;;15.82;100.00;98809.91;5019924;28;19921;-77
2023/08/05 05:45:54;;;;;;;;;;;;;;;15.88;100.00;98799.31;5019643;28;20029;-77
2023/08/05 05:48:19;;;;;;;;;;;;;;;15.99;100.00;98803.28;5020295;28;19952;-77
2023/08/05 05:50:45;;;;;;;;;;;;;;;16.06;100.00;98800.66;5022166;28;19921;-76
2023/08/05 05:53:13;;;;;;;;;;;;;;;16.14;100.00;98803.16;5021442;28;19921;-77
2023/08/05 05:55:41;;;;;;;;;;;;;;;16.06;100.00;98798.00;5018680;28;19929;-76
2023/08/05 05:58:07;;;;;;;;;;;;;;;16.05;100.00;98794.50;5020822;28;19964;-77
2023/08/05 06:00:32;;;;;;;;;;;;;;;16.15;100.00;98799.47;5020783;28;19963;-77
2023/08/05 06:02:57;;;;;;;;;;;;;;;16.11;100.00;98798.22;5023437;28;19925;-77
2023/08/05 06:05:23;;;;;;;;;;;;;;;16.19;100.00;98803.41;5024217;28;20005;-77
2023/08/05 06:07:48;;;;;;;;;;;;;;;16.22;100.00;98801.16;5022275;28;19922;-76
2023/08/05 06:10:14;;;;;;;;;;;;;;;16.20;100.00;98797.06;5025386;28;19960;-76
2023/08/05 06:12:40;;;;;;;;;;;;;;;16.27;100.00;98793.41;5026332;28;19922;-76
2023/08/05 06:15:08;;;;;;;;;;;;;;;16.37;100.00;98791.19;4990787;28;20274;-77
2023/08/05 06:17:34;;;;;;;;;;;;;;;16.45;100.00;98790.19;5037982;28;19932;-75
2023/08/05 06:19:59;;;;;;;;;;;;;;;16.50;100.00;98803.72;5023137;28;19922;-77
2023/08/05 06:22:24;;;;;;;;;;;;;;;16.61;100.00;98805.84;5027511;28;19921;-78
2023/08/05 06:24:51;;;;;;;;;;;;;;;16.73;100.00;98804.25;5022430;28;19921;-76
2023/08/05 06:27:16;;;;;;;;;;;;;;;16.81;100.00;98802.44;5024629;28;20043;-77
2023/08/05 06:29:41;;;;;;;;;;;;;;;16.87;100.00;98801.63;5021932;28;20016;-77
2023/08/05 06:32:07;;;;;;;;;;;;;;;16.92;100.00;98805.34;5024396;28;19925;-78
2023/08/05 06:34:32;;;;;;;;;;;;;;;17.02;100.00;98810.31;5022300;28;20064;-77
2023/08/05 06:36:57;;;;;;;;;;;;;;;17.08;100.00;98804.16;5022553;28;19967;-77
2023/08/05 06:39:23;;;;;;;;;;;;;;;17.15;100.00;98803.13;5023255;28;19933;-77
2023/08/05 06:41:48;;;;;;;;;;;;;;;17.19;100.00;98803.56;5036995;28;19926;-77
2023/08/05 06:44:13;;;;;;;;;;;;;;;17.28;100.00;98797.00;5024386;28;20463;-77
2023/08/05 06:46:39;;;;;;;;;;;;;;;17.38;100.00;98802.75;5021333;28;20345;-76
2023/08/05 06:49:05;;;;;;;;;;;;;;;17.50;100.00;98797.59;5023491;28;19935;-76
2023/08/05 06:51:32;;;;;;;;;;;;;;;17.50;100.00;98801.09;5025973;28;19921;-77
2023/08/05 06:53:57;;;;;;;;;;;;;;;17.55;100.00;98801.31;5022702;28;19948;-77
2023/08/05 06:56:22;;;;;;;;;;;;;;;17.64;100.00;98801.13;5023301;28;19921;-77
2023/08/05 06:58:48;;;;;;;;;;;;;;;17.70;100.00;98801.13;5003779;28;19922;-76
2023/08/05 07:01:15;;;;;;;;;;;;;;;17.77;100.00;98806.47;5024380;28;19925;-78
2023/08/05 07:03:42;;;;;;;;;;;;;;;17.87;100.00;98802.34;5024698;28;19917;-77
2023/08/05 07:06:07;;;;;;;;;;;;;;;17.97;100.00;98810.75;5020479;28;19922;-77
2023/08/05 07:08:33;;;;;;;;;;;;;;;18.07;100.00;98821.00;5020925;28;20020;-76
2023/08/05 07:10:58;;;;;;;;;;;;;;;18.18;100.00;98815.03;5022297;28;19917;-77
2023/08/05 07:13:27;;;;;;;;;;;;;;;18.31;100.00;98815.00;5022993;28;19936;-77
2023/08/05 07:16:01;;;;;;;;;;;;;;;18.41;100.00;98810.03;5022195;28;19924;-77
2023/08/05 07:18:27;;;;;;;;;;;;;;;18.42;100.00;98821.53;5004900;28;19921;-77
2023/08/05 07:20:52;;;;;;;;;;;;;;;18.52;100.00;98813.06;5025747;28;19999;-80
2023/08/05 07:23:18;;;;;;;;;;;;;;;18.63;100.00;98818.59;5022936;28;19944;-79
2023/08/05 07:25:43;;;;;;;;;;;;;;;18.73;100.00;98826.97;5020660;28;19980;-77
2023/08/05 07:28:08;;;;;;;;;;;;;;;18.86;100.00;98822.59;5023481;28;20397;-79
2023/08/05 07:30:34;;;;;;;;;;;;;;;18.97;100.00;98820.06;5021353;28;19987;-76
2023/08/05 07:32:59;;;;;;;;;;;;;;;19.06;100.00;98824.16;5037486;28;19922;-77
2023/08/05 07:35:28;;;;;;;;;;;;;;;19.18;100.00;98821.59;5022413;28;19927;-79
2023/08/05 07:37:54;;;;;;;;;;;;;;;19.27;100.00;98814.13;5020978;28;19925;-77
2023/08/05 07:40:19;;;;;;;;;;;;;;;19.36;100.00;98812.84;5004870;28;20019;-77
2023/08/05 07:42:45;;;;;;;;;;;;;;;19.45;100.00;98816.88;5020319;28;20405;-76
2023/08/05 07:45:16;;;;;;;;;;;;;;;19.50;100.00;98806.38;5023432;28;19921;-77
2023/08/05 07:47:41;;;;;;;;;;;;;;;19.59;100.00;98794.38;5024140;28;20374;-77
2023/08/05 07:50:07;;;;;;;;;;;;;;;19.66;100.00;98792.47;5022898;28;20003;-78
2023/08/05 07:52:33;;;;;;;;;;;;;;;19.73;100.00;98792.41;5024972;28;19961;-77
2023/08/05 07:55:00;;;;;;;;;;;;;;;19.81;100.00;98790.25;5021448;28;19971;-78
2023/08/05 07:57:25;;;;;;;;;;;;;;;19.89;100.00;98776.59;5021884;28;19929;-78
2023/08/05 07:59:52;;;;;;;;;;;;;;;19.99;100.00;98776.06;5020864;28;19928;-77
2023/08/05 08:02:17;;;;;;;;;;;;;;;20.08;100.00;98788.16;5022653;28;20016;-77
2023/08/05 08:04:44;;;;;;;;;;;;;;;20.18;100.00;98779.56;5020080;28;20016;-77
2023/08/05 08:07:09;;;;;;;;;;;;;;;20.30;100.00;98783.16;5022756;28;19965;-76
2023/08/05 08:09:34;;;;;;;;;;;;;;;20.42;100.00;98778.72;5020086;28;20436;-76
2023/08/05 08:12:00;;;;;;;;;;;;;;;20.56;100.00;98782.84;5003726;28;20017;-77
2023/08/05 08:14:25;;;;;;;;;;;;;;;20.69;100.00;98785.38;5021674;28;20377;-77
2023/08/05 08:16:50;;;;;;;;;;;;;;;20.78;100.00;98789.38;5020492;28;20023;-77
2023/08/05 08:19:18;;;;;;;;;;;;;;;20.90;100.00;98783.25;5022628;28;19921;-77
2023/08/05 08:21:44;;;;;;;;;;;;;;;20.99;100.00;98788.06;5023318;28;19925;-77
2023/08/05 08:24:09;;;;;;;;;;;;;;;21.08;100.00;98796.59;5022826;28;20042;-79
2023/08/05 08:26:34;;;;;;;;;;;;;;;21.15;100.00;98791.97;5019992;28;20035;-78
2023/08/05 08:29:00;;;;;;;;;;;;;;;21.22;100.00;98792.69;5021412;28;20007;-78
2023/08/05 08:31:29;;;;;;;;;;;;;;;21.33;100.00;98794.59;5021543;28;20361;-77
2023/08/05 08:33:55;;;;;;;;;;;;;;;21.42;100.00;98795.09;5021314;28;19928;-78
2023/08/05 08:36:20;;;;;;;;;;;;;;;21.50;100.00;98795.53;5004942;28;19921;-77
2023/08/05 08:38:46;;;;;;;;;;;;;;;21.64;100.00;98791.59;5019699;28;19921;-78
2023/08/05 08:41:11;;;;;;;;;;;;;;;21.83;100.00;98800.38;5022295;28;19921;-77
2023/08/05 08:43:37;;;;;;;;;;;;;;;21.95;100.00;98797.72;5019775;28;19925;-76
2023/08/05 08:46:05;;;;;;;;;;;;;;;22.06;100.00;98804.97;5021341;28;19921;-76
2023/08/05 08:48:32;;;;;;;;;;;;;;;22.25;100.00;98797.56;5020507;28;20336;-77
2023/08/05 08:50:58;;;;;;;;;;;;;;;22.39;100.00;98799.75;5025098;28;19962;-78
2023/08/05 08:53:23;;;;;;;;;;;;;;;22.44;100.00;98805.22;5021297;28;20783;-77
2023/08/05 08:55:49;;;;;;;;;;;;;;;22.53;100.00;98800.31;5019693;28;20106;-78
2023/08/05 08:58:15;;;;;;;;;;;;;;;22.66;100.00;98801.94;5022032;28;19927;-78
2023/08/05 09:00:41;;;;;;;;;;;;;;;22.82;100.00;98803.88;5022874;28;19953;-78
2023/08/05 09:03:06;;;;;;;;;;;;;;;22.88;100.00;98805.59;5019473;28;19957;-77
2023/08/05 09:05:35;;;;;;;;;;;;;;;23.01;100.00;98797.25;5021529;28;19922;-79
2023/08/05 09:08:03;;;;;;;;;;;;;;;23.16;100.00;98810.16;5020036;28;20350;-79
2023/08/05 09:10:28;;;;;;;;;;;;;;;23.26;99.37;98800.41;5020943;28;20282;-79
2023/08/05 09:12:57;;;;;;;;;;;;;;;23.25;100.00;98792.56;5021040;28;19952;-79
2023/08/05 09:15:30;;;;;;;;;;;;;;;23.31;93.25;98796.16;5019859;28;19925;-81
2023/08/05 09:17:56;;;;;;;;;;;;;;;23.37;95.96;98785.25;5021097;28;20009;-82
2023/08/05 09:20:24;;;;;;;;;;;;;;;23.40;94.73;98773.16;5020797;28;19929;-82
2023/08/05 09:22:56;;;;;;;;;;;;;;;23.40;93.53;98781.22;5022399;28;19932;-81
2023/08/05 09:25:22;;;;;;;;;;;;;;;23.49;86.03;98783.31;5021362;28;20029;-81
2023/08/05 09:27:47;;;;;;;;;;;;;;;23.55;87.73;98774.28;5019285;28;20004;-83
2023/08/05 09:30:13;;;;;;;;;;;;;;;23.55;86.27;98778.84;5021934;28;19932;-82
2023/08/05 09:32:38;;;;;;;;;;;;;;;23.57;87.53;98774.00;5019124;28;19922;-82
2023/08/05 09:35:08;;;;;;;;;;;;;;;23.59;79.08;98771.88;5023587;28;19929;-81
2023/08/05 09:37:34;;;;;;;;;;;;;;;23.72;72.13;98760.78;5023636;28;20024;-82
2023/08/05 09:40:01;;;;;;;;;;;;;;;23.78;76.47;98761.66;5025066;28;20015;-82
2023/08/05 09:42:27;;;;;;;;;;;;;;;23.85;77.20;98755.06;5026559;28;19968;-82
2023/08/05 09:44:54;;;;;;;;;;;;;;;23.92;75.95;98761.06;5025348;28;19921;-79
2023/08/05 09:47:23;;;;;;;;;;;;;;;23.95;78.14;98755.19;5022847;28;19925;-80
2023/08/05 09:49:51;;;;;;;;;;;;;;;24.05;76.08;98759.91;5025853;28;19949;-80
2023/08/05 09:52:17;;;;;;;;;;;;;;;24.16;75.87;98748.19;5027702;28;20406;-81
2023/08/05 09:54:58;;;;;;;;;;;;;;;24.28;72.94;98748.91;5022954;28;20012;-81
2023/08/05 09:57:24;;;;;;;;;;;;;;;24.35;73.45;98756.81;5027615;28;20787;-81
2023/08/05 09:59:53;;;;;;;;;;;;;;;24.38;71.96;98757.16;5024683;28;19928;-81
2023/08/05 10:02:22;;;;;;;;;;;;;;;24.39;72.32;98749.84;5026620;28;19925;-82
2023/08/05 10:04:51;;;;;;;;;;;;;;;24.41;71.04;98758.50;5023751;28;20015;-80
2023/08/05 10:07:17;;;;;;;;;;;;;;;24.40;72.24;98749.59;5021603;28;20389;-81
2023/08/05 10:09:43;;;;;;;;;;;;;;;24.41;70.99;98750.41;5025898;28;19928;-82
2023/08/05 10:12:09;;;;;;;;;;;;;;;24.46;68.70;98745.06;5022567;28;19922;-82
2023/08/05 10:14:34;;;;;;;;;;;;;;;24.51;68.96;98747.81;5025614;28;20277;-82
2023/08/05 10:17:00;;;;;;;;;;;;;;;24.76;63.62;98740.03;5023719;28;19928;-81
2023/08/05 10:19:26;;;;;;;;;;;;;;;25.00;62.11;98750.53;5006178;28;19922;-82
2023/08/05 10:21:52;;;;;;;;;;;;;;;25.08;62.83;98747.41;5026812;28;19921;-82
2023/08/05 10:24:17;;;;;;;;;;;;;;;25.22;60.82;98735.09;5024994;28;20012;-81
2023/08/05 10:26:44;;;;;;;;;;;;;;;25.24;60.68;98735.66;5022266;28;19922;-82
2023/08/05 10:29:25;;;;;;;;;;;;;;;25.33;61.44;98733.31;5025341;28;19920;-83
2023/08/05 10:31:51;;;;;;;;;;;;;;;25.46;60.68;98727.44;5027457;28;20015;-79
2023/08/05 10:34:19;;;;;;;;;;;;;;;25.51;59.65;98725.59;5023363;28;19969;-80
2023/08/05 10:36:50;;;;;;;;;;;;;;;25.57;56.48;98726.47;5036568;28;19921;-79
2023/08/05 10:39:34;;;;;;;;;;;;;;;25.67;57.68;98724.69;5035458;28;19944;-79
2023/08/05 10:42:15;;;;;;;;;;;;;;;25.89;51.39;98713.72;5022518;28;19928;-81
2023/08/05 10:44:41;;;;;;;;;;;;;;;25.85;54.76;98709.09;5008486;28;19921;-81
2023/08/05 10:47:06;;;;;;;;;;;;;;;25.87;54.35;98712.34;5021704;28;20344;-82
2023/08/05 10:49:31;;;;;;;;;;;;;;;25.96;55.06;98708.06;5024536;28;19944;-81
2023/08/05 10:51:57;;;;;;;;;;;;;;;25.92;55.88;98706.97;5041792;28;20320;-81
2023/08/05 10:54:22;;;;;;;;;;;;;;;25.92;53.84;98704.28;5026707;28;19917;-81
2023/08/05 10:56:47;;;;;;;;;;;;;;;26.02;54.96;98698.91;5029504;28;19945;-81
2023/08/05 10:59:13;;;;;;;;;;;;;;;26.15;52.31;98695.75;5037510;28;19925;-83
2023/08/05 11:01:57;;;;;;;;;;;;;;;26.30;51.10;98686.88;5034627;28;19921;-83
2023/08/05 11:04:29;;;;;;;;;;;;;;;26.24;52.12;98688.75;5024522;28;19922;-82
2023/08/05 11:06:54;;;;;;;;;;;;;;;26.21;54.03;98681.16;5000985;28;19927;-81
2023/08/05 11:09:20;;;;;;;;;;;;;;;26.17;55.09;98676.53;5024106;28;19947;-81
2023/08/05 11:11:49;;;;;;;;;;;;;;;26.15;53.79;98667.88;5003975;28;20359;-81
2023/08/05 11:14:18;;;;;;;;;;;;;;;26.12;50.26;98666.50;5024759;28;19921;-82
2023/08/05 11:16:45;;;;;;;;;;;;;;;26.20;49.50;98671.41;5025189;28;19925;-81
2023/08/05 11:19:11;;;;;;;;;;;;;;;26.36;48.55;98661.47;5024218;28;20369;-81
2023/08/05 11:21:37;;;;;;;;;;;;;;;26.65;46.16;98664.50;5025429;28;20767;-81
2023/08/05 11:24:02;;;;;;;;;;;;;;;26.71;47.59;98671.56;5038263;28;19922;-81
2023/08/05 11:26:28;;;;;;;;;;;;;;;26.89;45.00;98681.91;5022809;28;20338;-80
2023/08/05 11:28:53;;;;;;;;;;;;;;;26.94;42.77;98695.44;5022142;28;20297;-82
2023/08/05 11:31:22;;;;;;;;;;;;;;;26.84;44.88;98695.41;5023912;28;19928;-81
2023/08/05 11:33:48;;;;;;;;;;;;;;;26.73;46.16;98677.53;5021328;28;20385;-81
2023/08/05 11:36:13;;;;;;;;;;;;;;;26.70;45.29;98672.63;5024080;28;19960;-81
2023/08/05 11:38:39;;;;;;;;;;;;;;;26.62;46.51;98665.06;5020880;28;19956;-79
2023/08/05 11:41:05;;;;;;;;;;;;;;;26.58;44.95;98672.06;5023333;28;19944;-81
2023/08/05 11:43:31;;;;;;;;;;;;;;;26.58;45.29;98669.38;5020754;28;20353;-80
2023/08/05 11:45:57;;;;;;;;;;;;;;;26.67;44.62;98682.13;5022437;28;19936;-81
2023/08/05 11:48:24;;;;;;;;;;;;;;;26.78;40.70;98686.47;5021425;28;20293;-80
2023/08/05 11:50:50;;;;;;;;;;;;;;;26.82;41.10;98671.31;5025440;28;19928;-81
2023/08/05 11:53:17;;;;;;;;;;;;;;;26.83;44.11;98667.53;5023560;28;19928;-81
2023/08/05 11:55:43;;;;;;;;;;;;;;;26.98;38.72;98658.59;5020762;28;19918;-82
2023/08/05 11:58:10;;;;;;;;;;;;;;;27.06;39.55;98660.78;5022101;28;19921;-81
2023/08/05 12:00:36;;;;;;;;;;;;;;;27.09;40.75;98649.44;5021024;28;19921;-81
2023/08/05 12:03:04;;;;;;;;;;;;;;;27.17;40.69;98651.56;5037623;28;19918;-80
2023/08/05 12:05:29;;;;;;;;;;;;;;;27.26;41.07;98647.25;5021721;28;19929;-81
2023/08/05 12:07:55;;;;;;;;;;;;;;;27.39;38.51;98647.78;5021133;28;19917;-80
2023/08/05 12:10:20;;;;;;;;;;;;;;;27.54;41.24;98653.19;5022935;28;19922;-81
2023/08/05 12:12:49;;;;;;;;;;;;;;;27.63;39.88;98644.19;5020290;28;19922;-80
2023/08/05 12:15:17;;;;;;;;;;;;;;;27.81;39.24;98640.06;5026697;28;19924;-80
2023/08/05 12:17:47;;;;;;;;;;;;;;;28.04;38.09;98644.03;5024260;28;19928;-79
2023/08/05 12:20:15;;;;;;;;;;;;;;;28.29;36.53;98635.81;5023091;28;19921;-81
2023/08/05 12:22:40;;;;;;;;;;;;;;;28.55;36.71;98633.78;5024036;28;19922;-80
2023/08/05 12:25:06;;;;;;;;;;;;;;;28.74;36.16;98642.91;5022538;28;20284;-81
2023/08/05 12:27:32;;;;;;;;;;;;;;;28.94;35.70;98635.69;5025928;28;19943;-81
2023/08/05 12:29:57;;;;;;;;;;;;;;;29.14;34.87;98641.75;5021979;28;19921;-81
2023/08/05 12:32:22;;;;;;;;;;;;;;;29.32;35.81;98640.25;5020064;28;19967;-81
2023/08/05 12:34:48;;;;;;;;;;;;;;;29.53;36.34;98638.94;5025049;28;20416;-82